Time;durP1;ratioP1;P1;durP2;ratioP2;P2;SDS_P1;SDS_P2;PMS_P1;PMS_P2;Temp;Humidity;BMP_temperature;BMP_pressure;BME280_temperature;BME280_humidity;BME280_pressure;Samples;Min_cycle;Max_cycle;Signal;HPM_P1;HPM_P2
2023/03/06 00:01:57;;;;;;;13.00;7.30;;;;;;;;;;10369000;28;20033;-58
2023/03/06 00:06:57;;;;;;;12.00;6.68;;;;;;;;;;10368694;28;20079;-57
2023/03/06 00:11:58;;;;;;;13.13;6.68;;;;;;;;;;10368220;28;20034;-56
2023/03/06 00:16:59;;;;;;;11.63;7.10;;;;;;;;;;10369309;28;20265;-57
2023/03/06 00:21:59;;;;;;;9.45;6.45;;;;;;;;;;10368261;28;20025;-57
2023/03/06 00:27:00;;;;;;;9.70;6.35;;;;;;;;;;10368495;28;20033;-58
2023/03/06 00:32:01;;;;;;;10.25;6.60;;;;;;;;;;10368280;28;20496;-58
2023/03/06 00:37:01;;;;;;;12.00;6.80;;;;;;;;;;10368284;28;20426;-57
2023/03/06 00:42:02;;;;;;;9.88;6.65;;;;;;;;;;10367418;28;20056;-56
2023/03/06 00:47:02;;;;;;;13.27;6.57;;;;;;;;;;10367689;28;20034;-53
2023/03/06 00:52:04;;;;;;;15.48;6.30;;;;;;;;;;10367584;28;20022;-58
2023/03/06 00:57:04;;;;;;;9.48;5.55;;;;;;;;;;10367380;28;20034;-56
2023/03/06 01:02:05;;;;;;;12.52;5.82;;;;;;;;;;10367368;28;20022;-56
2023/03/06 01:07:06;;;;;;;8.88;5.53;;;;;;;;;;10369273;28;20028;-58
2023/03/06 01:12:07;;;;;;;11.85;5.45;;;;;;;;;;10375517;28;20378;-55
2023/03/06 01:17:08;;;;;;;9.88;5.78;;;;;;;;;;10375000;28;20109;-57
2023/03/06 01:22:08;;;;;;;9.13;6.00;;;;;;;;;;10374804;28;20034;-57
2023/03/06 01:27:09;;;;;;;9.27;6.20;;;;;;;;;;10374570;28;20080;-57
2023/03/06 01:32:09;;;;;;;7.40;5.78;;;;;;;;;;10374860;28;20034;-58
2023/03/06 01:37:10;;;;;;;10.23;5.80;;;;;;;;;;10374307;28;20413;-57
2023/03/06 01:42:11;;;;;;;17.05;6.05;;;;;;;;;;10373725;28;20022;-57
2023/03/06 01:47:11;;;;;;;10.32;6.00;;;;;;;;;;10373952;28;20037;-58
2023/03/06 01:52:17;;;;;;;11.27;6.13;;;;;;;;;;10373516;28;20030;-58
2023/03/06 01:57:56;;;;;;;10.23;5.95;;;;;;;;;;10373199;28;20018;-57
2023/03/06 02:03:07;;;;;;;11.07;6.15;;;;;;;;;;10372806;28;20022;-58
2023/03/06 02:08:11;;;;;;;7.55;5.57;;;;;;;;;;10373205;28;20018;-58
2023/03/06 02:13:11;;;;;;;12.02;5.82;;;;;;;;;;10372843;28;20064;-55
2023/03/06 02:18:12;;;;;;;8.93;5.88;;;;;;;;;;10371847;28;20026;-56
2023/03/06 02:23:32;;;;;;;11.73;5.65;;;;;;;;;;10372925;28;20022;-56
2023/03/06 02:28:33;;;;;;;8.93;6.05;;;;;;;;;;10371355;28;20025;-56
2023/03/06 02:33:34;;;;;;;7.82;6.10;;;;;;;;;;10371907;28;20084;-55
2023/03/06 02:38:47;;;;;;;8.15;5.68;;;;;;;;;;10372200;28;20040;-56
2023/03/06 02:43:50;;;;;;;12.23;5.85;;;;;;;;;;10370282;28;20057;-55
2023/03/06 02:48:51;;;;;;;7.80;5.38;;;;;;;;;;10372100;28;20049;-58
2023/03/06 02:53:52;;;;;;;10.15;5.60;;;;;;;;;;10371309;28;20402;-57
2023/03/06 02:58:52;;;;;;;8.60;5.45;;;;;;;;;;10371579;28;20478;-58
2023/03/06 03:03:53;;;;;;;9.48;5.65;;;;;;;;;;10370840;28;20036;-58
2023/03/06 03:08:54;;;;;;;7.78;5.68;;;;;;;;;;10370670;28;20033;-58
2023/03/06 03:13:54;;;;;;;9.15;5.55;;;;;;;;;;10370387;28;20022;-58
2023/03/06 03:18:55;;;;;;;9.13;5.47;;;;;;;;;;10370387;28;20030;-58
2023/03/06 03:23:55;;;;;;;8.75;5.75;;;;;;;;;;10370170;28;20022;-58
2023/03/06 03:28:56;;;;;;;6.43;4.80;;;;;;;;;;10369660;28;20474;-59
2023/03/06 03:33:57;;;;;;;9.05;5.90;;;;;;;;;;10369854;28;20030;-58
2023/03/06 03:38:57;;;;;;;6.63;5.20;;;;;;;;;;10369925;28;20044;-57
2023/03/06 03:43:58;;;;;;;8.77;5.65;;;;;;;;;;10369605;28;20050;-59
2023/03/06 03:48:59;;;;;;;8.90;5.60;;;;;;;;;;10369326;28;20392;-55
2023/03/06 03:54:00;;;;;;;7.40;5.28;;;;;;;;;;10369709;28;20034;-60
2023/03/06 03:59:00;;;;;;;7.53;5.18;;;;;;;;;;10369525;28;20030;-59
2023/03/06 04:04:01;;;;;;;8.20;5.47;;;;;;;;;;10368777;28;20038;-59
2023/03/06 04:09:03;;;;;;;7.22;5.50;;;;;;;;;;10367447;28;20041;-60
2023/03/06 04:14:04;;;;;;;6.63;5.38;;;;;;;;;;10369021;28;20033;-60
2023/03/06 04:19:04;;;;;;;12.70;5.28;;;;;;;;;;10368870;28;20033;-57
2023/03/06 04:24:05;;;;;;;11.93;5.47;;;;;;;;;;10368760;28;20092;-57
2023/03/06 04:29:06;;;;;;;7.78;5.30;;;;;;;;;;10368173;28;20095;-59
2023/03/06 04:34:07;;;;;;;7.05;5.28;;;;;;;;;;10367949;28;20095;-59
2023/03/06 04:39:08;;;;;;;7.65;4.95;;;;;;;;;;10368434;28;20029;-57
2023/03/06 04:44:09;;;;;;;7.30;5.10;;;;;;;;;;10366287;28;20046;-58
2023/03/06 04:49:09;;;;;;;7.05;4.93;;;;;;;;;;10368246;28;20034;-59
2023/03/06 04:54:10;;;;;;;8.65;5.88;;;;;;;;;;10367509;28;20026;-57
2023/03/06 04:59:10;;;;;;;6.20;5.28;;;;;;;;;;10367370;28;20041;-58
2023/03/06 05:04:11;;;;;;;7.45;5.38;;;;;;;;;;10367468;28;20034;-58
2023/03/06 05:09:11;;;;;;;6.85;4.88;;;;;;;;;;10367394;28;20032;-58
2023/03/06 05:14:12;;;;;;;8.63;4.68;;;;;;;;;;10367650;28;20026;-59
2023/03/06 05:19:13;;;;;;;7.57;4.68;;;;;;;;;;10367155;28;20018;-57
2023/03/06 05:24:13;;;;;;;7.28;5.28;;;;;;;;;;10366947;28;20030;-57
2023/03/06 05:29:14;;;;;;;7.80;5.00;;;;;;;;;;10366934;28;20026;-57
2023/03/06 05:34:15;;;;;;;9.27;5.45;;;;;;;;;;10366931;28;20034;-57
2023/03/06 05:39:16;;;;;;;6.43;4.82;;;;;;;;;;10367345;28;20022;-56
2023/03/06 05:44:17;;;;;;;7.82;5.07;;;;;;;;;;10366989;28;20041;-58
2023/03/06 05:49:17;;;;;;;6.50;5.30;;;;;;;;;;10367195;28;20061;-58
2023/03/06 05:54:18;;;;;;;6.88;4.85;;;;;;;;;;10369336;28;20034;-57
2023/03/06 05:59:18;;;;;;;6.13;4.88;;;;;;;;;;10374073;28;20036;-58
2023/03/06 06:04:20;;;;;;;7.18;4.72;;;;;;;;;;10373066;28;20501;-57
2023/03/06 06:09:23;;;;;;;8.65;5.45;;;;;;;;;;10373752;28;20029;-57
2023/03/06 06:14:24;;;;;;;6.25;4.82;;;;;;;;;;10372801;28;20386;-57
2023/03/06 06:19:28;;;;;;;7.63;4.93;;;;;;;;;;10373361;28;20109;-57
2023/03/06 06:24:30;;;;;;;9.00;4.90;;;;;;;;;;10371221;28;20117;-57
2023/03/06 06:29:31;;;;;;;6.50;4.68;;;;;;;;;;10372299;28;20028;-55
2023/03/06 06:34:32;;;;;;;17.48;5.60;;;;;;;;;;10372771;28;20025;-53
2023/03/06 06:39:32;;;;;;;10.77;5.97;;;;;;;;;;10372707;28;20104;-56
2023/03/06 06:44:33;;;;;;;19.08;5.78;;;;;;;;;;10371780;28;20050;-54
2023/03/06 06:49:34;;;;;;;23.67;8.20;;;;;;;;;;10371464;28;20022;-55
2023/03/06 06:54:34;;;;;;;12.85;7.93;;;;;;;;;;10371377;28;20030;-54
2023/03/06 06:59:35;;;;;;;12.13;8.25;;;;;;;;;;10371843;28;20026;-55
2023/03/06 07:04:35;;;;;;;15.30;8.38;;;;;;;;;;10371399;28;20432;-54
2023/03/06 07:09:38;;;;;;;14.52;9.05;;;;;;;;;;10370365;28;20181;-57
2023/03/06 07:14:40;;;;;;;19.27;8.95;;;;;;;;;;10370324;28;20109;-57
2023/03/06 07:19:40;;;;;;;16.33;8.85;;;;;;;;;;10369480;28;20125;-58
2023/03/06 07:24:41;;;;;;;30.05;10.32;;;;;;;;;;10370636;28;20026;-57
2023/03/06 07:29:42;;;;;;;17.85;8.95;;;;;;;;;;10369976;28;20196;-57
2023/03/06 07:34:44;;;;;;;21.92;9.68;;;;;;;;;;10370325;28;20030;-55
2023/03/06 07:39:44;;;;;;;23.00;9.55;;;;;;;;;;10370080;28;20030;-56
2023/03/06 07:44:45;;;;;;;16.20;9.63;;;;;;;;;;10369582;28;20049;-55
2023/03/06 07:49:46;;;;;;;21.90;9.10;;;;;;;;;;10369307;28;20030;-57
2023/03/06 07:54:47;;;;;;;17.73;8.80;;;;;;;;;;10369295;28;20140;-56
2023/03/06 07:59:47;;;;;;;14.32;8.48;;;;;;;;;;10370087;28;20034;-57
2023/03/06 08:04:55;;;;;;;17.45;8.20;;;;;;;;;;10369963;28;20052;-55
2023/03/06 08:09:55;;;;;;;20.35;9.40;;;;;;;;;;10369201;28;20037;-55
2023/03/06 08:14:56;;;;;;;15.55;8.93;;;;;;;;;;10368458;28;20088;-56
2023/03/06 08:19:57;;;;;;;20.27;8.43;;;;;;;;;;10367902;28;20248;-56
2023/03/06 08:24:57;;;;;;;16.73;7.85;;;;;;;;;;10368543;28;20485;-55
2023/03/06 08:29:58;;;;;;;18.75;8.63;;;;;;;;;;10368030;28;20053;-57
2023/03/06 08:35:02;;;;;;;15.88;8.57;;;;;;;;;;10367934;28;20030;-56
2023/03/06 08:40:03;;;;;;;13.35;7.63;;;;;;;;;;10367845;28;20065;-57
2023/03/06 08:45:05;;;;;;;20.02;8.20;;;;;;;;;;10367624;28;20136;-56
2023/03/06 08:50:06;;;;;;;11.02;7.25;;;;;;;;;;10367584;28;20030;-57
2023/03/06 08:55:08;;;;;;;10.68;6.80;;;;;;;;;;10367468;28;20109;-56
2023/03/06 09:00:12;;;;;;;12.02;7.35;;;;;;;;;;10366057;28;20029;-56
2023/03/06 09:05:13;;;;;;;12.60;6.65;;;;;;;;;;10367777;28;20087;-55
2023/03/06 09:10:16;;;;;;;12.95;7.50;;;;;;;;;;10367246;28;20033;-57
2023/03/06 09:15:18;;;;;;;9.55;7.00;;;;;;;;;;10367163;28;20404;-54
2023/03/06 09:20:19;;;;;;;12.90;6.82;;;;;;;;;;10367207;28;20517;-57
2023/03/06 09:25:22;;;;;;;14.60;6.40;;;;;;;;;;10367555;28;20040;-55
2023/03/06 09:30:22;;;;;;;13.40;7.07;;;;;;;;;;10371110;28;20468;-57
2023/03/06 09:35:23;;;;;;;10.90;6.93;;;;;;;;;;10374967;28;20126;-54
2023/03/06 09:40:38;;;;;;;19.80;7.32;;;;;;;;;;10374783;28;20025;-57
2023/03/06 09:45:39;;;;;;;13.65;6.93;;;;;;;;;;10372755;28;20133;-55
2023/03/06 09:50:49;;;;;;;9.68;6.05;;;;;;;;;;10373940;28;20041;-57
2023/03/06 09:56:04;;;;;;;11.60;7.07;;;;;;;;;;10372884;28;20029;-56
2023/03/06 10:01:18;;;;;;;12.02;6.38;;;;;;;;;;10372880;28;20378;-57
2023/03/06 10:06:21;;;;;;;9.32;6.28;;;;;;;;;;10372760;28;20025;-56
2023/03/06 10:11:32;;;;;;;10.80;6.35;;;;;;;;;;10373948;28;20045;-56
2023/03/06 10:16:33;;;;;;;8.90;6.28;;;;;;;;;;10372170;28;20018;-57
2023/03/06 10:21:41;;;;;;;14.35;6.35;;;;;;;;;;10372599;28;20482;-55
2023/03/06 10:27:43;;;;;;;8.35;5.90;;;;;;;;;;10372730;28;20029;-57
2023/03/06 10:32:58;;;;;;;9.40;5.65;;;;;;;;;;10363807;28;20073;-57
2023/03/06 10:38:25;;;;;;;9.85;5.88;;;;;;;;;;10370853;28;20501;-56
2023/03/06 10:43:26;;;;;;;8.32;5.78;;;;;;;;;;10370852;28;20125;-57
2023/03/06 10:48:29;;;;;;;9.75;6.63;;;;;;;;;;10372160;28;20033;-57
2023/03/06 10:53:30;;;;;;;8.13;6.07;;;;;;;;;;10371807;28;20117;-57
2023/03/06 10:58:31;;;;;;;7.40;5.63;;;;;;;;;;10371657;28;20022;-57
2023/03/06 11:03:35;;;;;;;7.07;5.38;;;;;;;;;;10370964;28;20028;-57
2023/03/06 11:08:36;;;;;;;8.27;5.88;;;;;;;;;;10370178;28;20026;-56
2023/03/06 11:13:39;;;;;;;10.15;5.68;;;;;;;;;;10370918;28;20105;-57
2023/03/06 11:18:53;;;;;;;8.23;5.57;;;;;;;;;;10369352;28;20038;-57
2023/03/06 11:24:02;;;;;;;7.90;5.88;;;;;;;;;;10370708;28;20032;-57
2023/03/06 11:29:20;;;;;;;;;;;;;;;;;;10369603;28;20473;-58
2023/03/06 11:34:40;;;;;;;8.17;5.30;;;;;;;;;;10370492;28;19913;-55
2023/03/06 11:39:50;;;;;;;10.32;5.38;;;;;;;;;;10368886;28;20109;-57
2023/03/06 11:45:24;;;;;;;8.55;5.57;;;;;;;;;;10368189;28;20485;-56
2023/03/06 11:50:33;;;;;;;8.98;5.47;;;;;;;;;;10369761;28;20232;-56
2023/03/06 11:56:08;;;;;;;6.25;5.20;;;;;;;;;;10369206;28;20042;-56
2023/03/06 12:01:43;;;;;;;8.60;5.60;;;;;;;;;;10369420;28;20494;-56
2023/03/06 12:07:08;;;;;;;7.25;5.13;;;;;;;;;;10367706;28;20314;-55
2023/03/06 12:12:50;;;;;;;7.38;4.80;;;;;;;;;;10368349;28;20398;-55
2023/03/06 12:18:27;;;;;;;7.03;5.25;;;;;;;;;;10362843;28;20044;-57
2023/03/06 12:23:54;;;;;;;8.73;5.25;;;;;;;;;;10368253;28;20482;-56
2023/03/06 12:29:21;;;;;;;8.15;5.43;;;;;;;;;;10368690;28;20466;-57
2023/03/06 12:34:41;;;;;;;6.57;5.18;;;;;;;;;;10352142;28;20534;-57
2023/03/06 12:40:25;;;;;;;7.28;4.85;;;;;;;;;;10367162;28;20050;-57
2023/03/06 12:45:31;;;;;;;7.22;5.30;;;;;;;;;;10352637;28;20037;-57
2023/03/06 12:50:37;;;;;;;8.32;5.03;;;;;;;;;;10367958;28;20030;-57
2023/03/06 12:55:42;;;;;;;9.43;4.90;;;;;;;;;;10367455;28;20057;-57
2023/03/06 13:01:06;;;;;;;5.65;4.57;;;;;;;;;;10367480;28;20037;-57
2023/03/06 13:06:47;;;;;;;9.20;5.38;;;;;;;;;;10374018;28;20037;-57
2023/03/06 13:12:06;;;;;;;7.57;5.07;;;;;;;;;;10375282;28;20036;-56
2023/03/06 13:17:23;;;;;;;;;;;;;;;;;;10376270;28;20029;-56
2023/03/06 13:22:28;;;;;;;7.10;4.72;;;;;;;;;;10374883;28;19913;-54
2023/03/06 13:28:02;;;;;;;6.25;4.40;;;;;;;;;;10375269;28;20113;-57
2023/03/06 13:33:25;;;;;;;7.10;5.05;;;;;;;;;;10374384;28;20038;-56
2023/03/06 13:38:39;;;;;;;8.77;4.80;;;;;;;;;;10355389;28;20037;-55
2023/03/06 13:43:41;;;;;;;20.48;5.55;;;;;;;;;;10373915;28;20050;-55
2023/03/06 13:48:42;;;;;;;7.07;5.18;;;;;;;;;;10373302;28;20524;-56
2023/03/06 13:54:20;;;;;;;10.50;5.05;;;;;;;;;;10373982;28;20436;-56
2023/03/06 13:59:47;;;;;;;7.47;5.03;;;;;;;;;;10374329;28;20036;-56
2023/03/06 14:04:57;;;;;;;6.47;4.85;;;;;;;;;;10373313;28;20447;-56
2023/03/06 14:10:05;;;;;;;7.93;5.47;;;;;;;;;;10372756;28;20276;-56
2023/03/06 14:15:46;;;;;;;7.45;5.20;;;;;;;;;;10371352;28;20029;-55
2023/03/06 14:20:59;;;;;;;6.88;5.00;;;;;;;;;;10372371;28;20030;-57
2023/03/06 14:26:23;;;;;;;13.13;6.07;;;;;;;;;;10372298;28;20381;-56
2023/03/06 14:31:35;;;;;;;11.32;6.22;;;;;;;;;;10371614;28;20038;-54
2023/03/06 14:36:44;;;;;;;8.90;5.68;;;;;;;;;;10371878;28;20061;-56
2023/03/06 14:41:45;;;;;;;7.63;5.45;;;;;;;;;;10372160;28;20038;-57
2023/03/06 14:46:56;;;;;;;9.40;5.75;;;;;;;;;;10371422;28;20139;-55
2023/03/06 14:52:00;;;;;;;7.05;4.85;;;;;;;;;;10370299;28;20038;-56
2023/03/06 14:57:12;;;;;;;8.50;5.75;;;;;;;;;;10354164;28;20438;-56
2023/03/06 15:02:22;;;;;;;6.75;5.05;;;;;;;;;;10371085;28;20441;-55
2023/03/06 15:07:30;;;;;;;7.97;5.10;;;;;;;;;;10369937;28;20573;-56
2023/03/06 15:12:33;;;;;;;7.82;5.38;;;;;;;;;;10369882;28;20087;-56
2023/03/06 15:17:43;;;;;;;6.80;4.95;;;;;;;;;;10370253;28;20037;-57
2023/03/06 15:22:49;;;;;;;7.53;5.43;;;;;;;;;;10370198;28;20026;-56
2023/03/06 15:27:56;;;;;;;7.03;5.13;;;;;;;;;;10369605;28;20058;-57
2023/03/06 15:33:18;;;;;;;6.78;5.15;;;;;;;;;;10370068;28;20113;-55
2023/03/06 15:38:36;;;;;;;13.98;5.78;;;;;;;;;;10369310;28;20036;-56
2023/03/06 15:43:38;;;;;;;11.70;5.18;;;;;;;;;;10369286;28;20054;-55
2023/03/06 15:48:39;;;;;;;6.68;5.45;;;;;;;;;;10369641;28;20037;-55
2023/03/06 15:53:39;;;;;;;9.88;5.45;;;;;;;;;;10369281;28;20425;-54
2023/03/06 15:58:41;;;;;;;9.45;6.47;;;;;;;;;;10369175;28;20473;-56
2023/03/06 16:03:43;;;;;;;11.40;5.75;;;;;;;;;;10367910;28;20022;-55
2023/03/06 16:08:44;;;;;;;11.05;5.95;;;;;;;;;;10368708;28;20030;-56
2023/03/06 16:13:45;;;;;;;9.07;5.07;;;;;;;;;;10369100;28;20180;-56
2023/03/06 16:18:45;;;;;;;8.50;5.53;;;;;;;;;;10368823;28;20188;-56
2023/03/06 16:23:46;;;;;;;9.63;5.75;;;;;;;;;;10368212;28;20386;-55
2023/03/06 16:28:46;;;;;;;7.75;5.68;;;;;;;;;;10368315;28;20104;-55
2023/03/06 16:33:47;;;;;;;12.18;6.05;;;;;;;;;;10367828;28;20279;-56
2023/03/06 16:38:48;;;;;;;11.13;6.05;;;;;;;;;;10367990;28;20034;-56
2023/03/06 16:43:49;;;;;;;6.97;5.53;;;;;;;;;;10368332;28;20046;-56
2023/03/06 16:48:52;;;;;;;7.28;5.43;;;;;;;;;;10366437;28;20495;-56
2023/03/06 16:53:53;;;;;;;6.78;5.30;;;;;;;;;;10367375;28;20385;-57
2023/03/06 16:58:53;;;;;;;6.70;5.53;;;;;;;;;;10367576;28;20080;-57
2023/03/06 17:03:54;;;;;;;7.75;5.43;;;;;;;;;;10367286;28;20026;-57
2023/03/06 17:08:56;;;;;;;7.30;5.53;;;;;;;;;;10367306;28;20037;-57
2023/03/06 17:13:57;;;;;;;8.55;5.10;;;;;;;;;;10367413;28;20280;-58
2023/03/06 17:18:58;;;;;;;7.78;5.78;;;;;;;;;;10366829;28;20257;-57
2023/03/06 17:24:01;;;;;;;7.82;6.00;;;;;;;;;;10366630;28;20150;-57
2023/03/06 17:29:02;;;;;;;7.88;5.53;;;;;;;;;;10367105;28;20026;-55
2023/03/06 17:34:03;;;;;;;13.18;6.28;;;;;;;;;;10366595;28;20038;-55
2023/03/06 17:39:04;;;;;;;8.80;6.07;;;;;;;;;;10366693;28;20100;-52
2023/03/06 17:44:05;;;;;;;11.38;7.35;;;;;;;;;;10366229;28;20092;-55
2023/03/06 17:49:06;;;;;;;14.60;7.07;;;;;;;;;;10367355;28;20030;-56
2023/03/06 17:54:06;;;;;;;12.68;7.57;;;;;;;;;;10373711;28;20109;-55
2023/03/06 17:59:07;;;;;;;11.52;7.70;;;;;;;;;;10373785;28;20037;-53
2023/03/06 18:04:09;;;;;;;19.90;8.57;;;;;;;;;;10373338;28;20104;-56
2023/03/06 18:09:10;;;;;;;15.02;8.60;;;;;;;;;;10372471;28;20414;-55
2023/03/06 18:14:10;;;;;;;21.90;8.60;;;;;;;;;;10373702;28;20037;-57
2023/03/06 18:19:11;;;;;;;14.57;8.13;;;;;;;;;;10372822;28;20029;-54
2023/03/06 18:24:12;;;;;;;15.30;8.63;;;;;;;;;;10372260;28;20241;-54
2023/03/06 18:29:13;;;;;;;15.30;7.82;;;;;;;;;;10372873;28;20033;-53
2023/03/06 18:34:16;;;;;;;20.80;8.32;;;;;;;;;;10372104;28;20472;-50
2023/03/06 18:39:20;;;;;;;17.75;8.20;;;;;;;;;;10368472;28;20084;-53
2023/03/06 18:44:21;;;;;;;20.05;9.48;;;;;;;;;;10370466;28;20134;-57
2023/03/06 18:49:21;;;;;;;29.30;8.68;;;;;;;;;;10371066;28;20469;-51
2023/03/06 18:54:24;;;;;;;19.23;8.35;;;;;;;;;;10370625;28;20033;-53
2023/03/06 18:59:24;;;;;;;23.55;9.68;;;;;;;;;;10370528;28;20033;-54
2023/03/06 19:04:26;;;;;;;20.00;9.95;;;;;;;;;;10370649;28;20030;-55
2023/03/06 19:09:26;;;;;;;20.20;9.65;;;;;;;;;;10370537;28;20337;-55
2023/03/06 19:14:27;;;;;;;20.77;9.18;;;;;;;;;;10368486;28;20466;-59
2023/03/06 19:19:28;;;;;;;18.75;8.93;;;;;;;;;;10369225;28;20421;-56
2023/03/06 19:24:29;;;;;;;17.02;8.27;;;;;;;;;;10369695;28;20212;-55
2023/03/06 19:29:31;;;;;;;18.13;9.32;;;;;;;;;;10369963;28;20022;-54
2023/03/06 19:34:31;;;;;;;18.83;8.30;;;;;;;;;;10369932;28;20105;-51
2023/03/06 19:39:32;;;;;;;14.85;8.77;;;;;;;;;;10369791;28;20033;-53
2023/03/06 19:44:33;;;;;;;16.45;8.30;;;;;;;;;;10370202;28;20112;-51
2023/03/06 19:49:34;;;;;;;13.13;7.78;;;;;;;;;;10369432;28;20335;-50
2023/03/06 19:54:35;;;;;;;15.55;8.13;;;;;;;;;;10368761;28;20030;-49
2023/03/06 19:59:35;;;;;;;13.48;7.68;;;;;;;;;;10368661;28;20029;-51
2023/03/06 20:04:36;;;;;;;14.23;7.68;;;;;;;;;;10368739;28;20049;-54
2023/03/06 20:09:37;;;;;;;14.50;8.40;;;;;;;;;;10367452;28;20030;-52
2023/03/06 20:14:38;;;;;;;13.07;7.85;;;;;;;;;;10367959;28;20026;-52
2023/03/06 20:19:39;;;;;;;12.70;7.57;;;;;;;;;;10368266;28;20084;-50
2023/03/06 20:24:39;;;;;;;10.13;7.75;;;;;;;;;;10366644;28;20465;-53
2023/03/06 20:29:43;;;;;;;13.57;7.68;;;;;;;;;;10367974;28;20096;-51
2023/03/06 20:34:44;;;;;;;13.55;7.80;;;;;;;;;;10367423;28;20041;-50
2023/03/06 20:39:46;;;;;;;17.60;7.78;;;;;;;;;;10368350;28;20404;-53
2023/03/06 20:44:47;;;;;;;19.65;7.78;;;;;;;;;;10367427;28;20076;-51
2023/03/06 20:49:47;;;;;;;13.63;7.47;;;;;;;;;;10368033;28;20359;-56
2023/03/06 20:54:48;;;;;;;13.90;7.60;;;;;;;;;;10368234;28;20377;-57
2023/03/06 20:59:49;;;;;;;16.38;7.78;;;;;;;;;;10367635;28;20030;-57
2023/03/06 21:04:50;;;;;;;17.40;7.90;;;;;;;;;;10366976;28;20038;-56
2023/03/06 21:09:51;;;;;;;13.32;6.82;;;;;;;;;;10366350;28;20037;-56
2023/03/06 21:14:51;;;;;;;15.55;7.47;;;;;;;;;;10365017;28;20025;-57
2023/03/06 21:19:52;;;;;;;11.70;6.68;;;;;;;;;;10366240;28;20499;-55
2023/03/06 21:24:52;;;;;;;10.65;6.40;;;;;;;;;;10370428;28;20092;-57
2023/03/06 21:29:53;;;;;;;10.60;6.57;;;;;;;;;;10374062;28;20038;-58
2023/03/06 21:34:54;;;;;;;10.25;7.03;;;;;;;;;;10373472;28;20084;-55
2023/03/06 21:39:58;;;;;;;9.48;6.50;;;;;;;;;;10373760;28;20026;-56
2023/03/06 21:44:59;;;;;;;12.98;6.53;;;;;;;;;;10373659;28;20133;-54
2023/03/06 21:49:59;;;;;;;10.63;6.43;;;;;;;;;;10373684;28;20042;-57
2023/03/06 21:55:00;;;;;;;11.13;6.22;;;;;;;;;;10373555;28;20080;-54
2023/03/06 22:00:03;;;;;;;10.90;6.22;;;;;;;;;;10373882;28;20113;-57
2023/03/06 22:05:04;;;;;;;12.15;6.97;;;;;;;;;;10373188;28;20362;-57
2023/03/06 22:10:08;;;;;;;11.25;6.57;;;;;;;;;;10373511;28;20037;-56
2023/03/06 22:15:09;;;;;;;20.70;7.57;;;;;;;;;;10372902;28;20030;-55
2023/03/06 22:20:11;;;;;;;15.20;7.22;;;;;;;;;;10372175;28;20507;-57
2023/03/06 22:25:13;;;;;;;19.60;7.72;;;;;;;;;;10372555;28;20113;-58
2023/03/06 22:30:14;;;;;;;15.13;7.20;;;;;;;;;;10371538;28;20241;-54
2023/03/06 22:35:14;;;;;;;17.55;6.97;;;;;;;;;;10371153;28;20565;-56
2023/03/06 22:40:15;;;;;;;18.23;7.22;;;;;;;;;;10372138;28;20030;-53
2023/03/06 22:45:16;;;;;;;11.38;6.38;;;;;;;;;;10371711;28;20050;-56
2023/03/06 22:50:17;;;;;;;14.43;7.25;;;;;;;;;;10371950;28;20080;-55
2023/03/06 22:55:18;;;;;;;22.23;6.97;;;;;;;;;;10371470;28;20134;-54
2023/03/06 23:00:18;;;;;;;14.65;6.25;;;;;;;;;;10371881;28;20196;-55
2023/03/06 23:05:20;;;;;;;11.85;5.72;;;;;;;;;;10371397;28;20040;-56
2023/03/06 23:10:20;;;;;;;13.38;6.85;;;;;;;;;;10371888;28;20065;-55
2023/03/06 23:15:21;;;;;;;10.60;6.13;;;;;;;;;;10371785;28;20029;-55
2023/03/06 23:20:22;;;;;;;11.90;5.75;;;;;;;;;;10371615;28;20076;-56
2023/03/06 23:25:22;;;;;;;13.88;5.80;;;;;;;;;;10371143;28;20026;-58
2023/03/06 23:30:23;;;;;;;9.73;5.78;;;;;;;;;;10370459;28;20458;-57
2023/03/06 23:35:24;;;;;;;10.20;6.53;;;;;;;;;;10370421;28;20080;-56
2023/03/06 23:40:25;;;;;;;9.75;5.80;;;;;;;;;;10370557;28;20109;-56
2023/03/06 23:45:26;;;;;;;9.63;5.53;;;;;;;;;;10369496;28;20505;-57
2023/03/06 23:50:26;;;;;;;12.18;6.28;;;;;;;;;;10368468;28;20032;-58
2023/03/06 23:55:27;;;;;;;16.33;6.30;;;;;;;;;;10369855;28;20029;-58
